Time;durP1;ratioP1;P1;durP2;ratioP2;P2;SDS_P1;SDS_P2;PMS_P1;PMS_P2;Temp;Humidity;BMP_temperature;BMP_pressure;BME280_temperature;BME280_humidity;BME280_pressure;Samples;Min_cycle;Max_cycle;Signal;HPM_P1;HPM_P2
2022/07/31 00:01:16;;;;;;;2.80;2.60;;;23.90;60.80;;;;;;5052127;28;20552;-69
2022/07/31 00:03:42;;;;;;;3.53;3.33;;;23.90;60.40;;;;;;5046144;28;20529;-69
2022/07/31 00:06:08;;;;;;;3.57;3.17;;;23.90;60.60;;;;;;5054309;28;20301;-69
2022/07/31 00:08:34;;;;;;;3.30;3.10;;;23.90;60.70;;;;;;5032829;28;20231;-69
2022/07/31 00:10:59;;;;;;;3.23;3.03;;;23.90;60.50;;;;;;5052210;28;20269;-69
2022/07/31 00:13:25;;;;;;;3.10;2.90;;;23.90;60.50;;;;;;5035999;28;20225;-70
2022/07/31 00:15:51;;;;;;;3.40;3.10;;;23.90;60.60;;;;;;5049687;28;20226;-70
2022/07/31 00:18:16;;;;;;;3.30;3.07;;;23.90;60.70;;;;;;5085369;28;20233;-70
2022/07/31 00:20:43;;;;;;;3.03;2.83;;;23.90;60.50;;;;;;5069886;28;20317;-70
2022/07/31 00:23:10;;;;;;;2.83;2.63;;;23.90;60.90;;;;;;5070682;28;20223;-70
2022/07/31 00:25:36;;;;;;;3.30;3.00;;;23.80;60.60;;;;;;5052264;28;20449;-69
2022/07/31 00:28:02;;;;;;;3.40;3.10;;;23.80;60.60;;;;;;5033953;28;20469;-70
2022/07/31 00:30:28;;;;;;;4.03;2.63;;;23.80;60.50;;;;;;5035786;28;20230;-70
2022/07/31 00:32:54;;;;;;;3.10;2.90;;;23.80;60.70;;;;;;5071163;28;20486;-70
2022/07/31 00:35:20;;;;;;;5.03;3.07;;;23.80;60.90;;;;;;5051727;28;20234;-70
2022/07/31 00:37:46;;;;;;;2.90;2.70;;;23.70;60.50;;;;;;5070014;28;20264;-69
2022/07/31 00:40:14;;;;;;;3.20;3.00;;;23.70;60.70;;;;;;5049969;28;20219;-69
2022/07/31 00:42:40;;;;;;;3.40;3.20;;;23.60;60.80;;;;;;5045000;28;20226;-69
2022/07/31 00:45:08;;;;;;;3.13;2.93;;;23.60;61.10;;;;;;5038359;28;20999;-70
2022/07/31 00:47:33;;;;;;;3.37;3.07;;;23.60;61.10;;;;;;5051124;28;20504;-69
2022/07/31 00:49:59;;;;;;;3.00;2.80;;;23.60;61.10;;;;;;5049040;28;20486;-70
2022/07/31 00:52:25;;;;;;;3.00;2.70;;;23.60;61.50;;;;;;5067174;28;20836;-69
2022/07/31 00:54:50;;;;;;;3.53;3.23;;;23.50;61.40;;;;;;5051611;28;20689;-70
2022/07/31 00:57:16;;;;;;;3.50;3.23;;;23.60;61.60;;;;;;5033698;28;20215;-71
2022/07/31 00:59:42;;;;;;;2.90;2.70;;;23.60;61.60;;;;;;5051534;28;20282;-69
2022/07/31 01:02:08;;;;;;;4.97;3.67;;;23.60;61.50;;;;;;5050941;28;20222;-70
2022/07/31 01:04:35;;;;;;;3.27;3.07;;;23.60;61.50;;;;;;5035124;28;20441;-69
2022/07/31 01:07:00;;;;;;;5.67;3.03;;;23.50;61.60;;;;;;5049328;28;20444;-70
2022/07/31 01:09:26;;;;;;;2.83;2.63;;;23.50;61.50;;;;;;5065750;28;20632;-70
2022/07/31 01:12:27;;;;;;;4.93;3.33;;;23.50;61.40;;;;;;5033275;28;20241;-70
2022/07/31 01:14:56;;;;;;;3.47;3.17;;;23.50;61.30;;;;;;5049121;28;20210;-69
2022/07/31 01:17:24;;;;;;;3.30;3.07;;;23.50;61.40;;;;;;5061108;28;20445;-70
2022/07/31 01:19:52;;;;;;;3.10;2.90;;;23.50;61.50;;;;;;5043632;28;20446;-70
2022/07/31 01:22:57;;;;;;;3.70;3.27;;;23.50;61.30;;;;;;5035168;28;21038;-69
2022/07/31 01:25:35;;;;;;;2.77;2.57;;;23.40;61.50;;;;;;5022623;28;20441;-70
2022/07/31 01:28:58;;;;;;;3.20;2.53;;;23.40;61.30;;;;;;5055394;28;20464;-70
2022/07/31 01:31:38;;;;;;;3.30;3.00;;;23.40;61.60;;;;;;5048865;28;20438;-70
2022/07/31 01:34:32;;;;;;;3.70;3.37;;;23.30;61.40;;;;;;5027066;28;20940;-69
2022/07/31 01:37:31;;;;;;;4.00;3.10;;;23.30;61.60;;;;;;5050814;28;20526;-70
2022/07/31 01:40:05;;;;;;;3.00;2.80;;;23.30;61.70;;;;;;5066270;28;20516;-69
2022/07/31 01:42:33;;;;;;;3.40;3.20;;;23.30;62.50;;;;;;5054454;28;20440;-70
2022/07/31 01:45:00;;;;;;;3.13;2.83;;;23.30;61.70;;;;;;5045981;28;20959;-69
2022/07/31 01:47:28;;;;;;;3.37;3.17;;;23.30;61.70;;;;;;5043181;28;20453;-70
2022/07/31 01:49:57;;;;;;;6.20;3.20;;;23.30;62.50;;;;;;5052200;28;20481;-70
2022/07/31 01:52:25;;;;;;;2.90;2.70;;;23.20;61.40;;;;;;5048264;28;20494;-70
2022/07/31 01:54:54;;;;;;;3.40;3.10;;;23.20;61.30;;;;;;5050699;28;20519;-70
2022/07/31 01:57:23;;;;;;;3.37;3.13;;;23.20;61.40;;;;;;5076370;28;20446;-70
2022/07/31 01:59:54;;;;;;;3.23;3.00;;;23.20;61.30;;;;;;5050321;28;20448;-69
2022/07/31 02:02:41;;;;;;;2.87;2.67;;;23.20;61.10;;;;;;5055528;28;20999;-69
2022/07/31 02:05:10;;;;;;;3.77;3.47;;;23.20;61.30;;;;;;5046313;28;20471;-69
2022/07/31 02:07:39;;;;;;;3.13;2.73;;;23.20;61.30;;;;;;5044959;28;20514;-69
2022/07/31 02:10:08;;;;;;;4.53;2.93;;;23.20;61.40;;;;;;5026641;28;20456;-69
2022/07/31 02:12:36;;;;;;;3.30;3.10;;;23.10;61.10;;;;;;5033330;28;20456;-70
2022/07/31 02:15:07;;;;;;;3.10;2.87;;;23.10;61.20;;;;;;5050239;28;20452;-70
2022/07/31 02:17:34;;;;;;;3.17;2.97;;;23.10;61.40;;;;;;5050969;28;20456;-69
2022/07/31 02:20:30;;;;;;;2.97;2.73;;;23.10;61.20;;;;;;5020132;28;20483;-69
2022/07/31 02:22:58;;;;;;;3.40;3.10;;;23.00;61.20;;;;;;5030871;28;20452;-69
2022/07/31 02:25:25;;;;;;;3.20;2.90;;;23.00;61.20;;;;;;5079363;28;20507;-70
2022/07/31 02:27:53;;;;;;;3.23;3.00;;;23.00;61.30;;;;;;5052883;28;20447;-71
2022/07/31 02:30:19;;;;;;;3.03;2.73;;;23.00;61.90;;;;;;5034562;28;20456;-69
2022/07/31 02:32:48;;;;;;;4.50;3.40;;;22.90;61.70;;;;;;5049157;28;20473;-70
2022/07/31 02:35:16;;;;;;;3.40;3.10;;;22.90;61.90;;;;;;5050523;28;20519;-69
2022/07/31 02:37:44;;;;;;;3.13;2.80;;;22.90;61.90;;;;;;5034725;28;20476;-70
2022/07/31 02:40:12;;;;;;;3.03;2.67;;;22.90;61.90;;;;;;5035336;28;20989;-71
2022/07/31 02:42:40;;;;;;;4.17;2.87;;;22.90;62.00;;;;;;5015258;28;20453;-70
2022/07/31 02:45:08;;;;;;;2.87;2.63;;;22.90;62.20;;;;;;5031823;28;20445;-71
2022/07/31 02:47:36;;;;;;;2.80;2.60;;;22.90;62.10;;;;;;5032558;28;20794;-70
2022/07/31 02:50:06;;;;;;;3.50;3.20;;;22.90;62.20;;;;;;5051414;28;20449;-69
2022/07/31 02:52:33;;;;;;;3.10;2.53;;;22.80;62.10;;;;;;5049980;28;20968;-67
2022/07/31 02:55:00;;;;;;;2.80;2.60;;;22.70;62.90;;;;;;5033426;28;20528;-68
2022/07/31 02:57:26;;;;;;;3.03;2.80;;;22.70;62.70;;;;;;5034604;28;20231;-70
2022/07/31 02:59:52;;;;;;;2.97;2.77;;;22.70;62.90;;;;;;5049745;28;20445;-69
2022/07/31 03:02:20;;;;;;;3.87;3.47;;;22.70;62.80;;;;;;5033283;28;20227;-70
2022/07/31 03:04:45;;;;;;;2.97;2.77;;;22.70;62.70;;;;;;5026329;28;20437;-70
2022/07/31 03:07:11;;;;;;;3.53;3.23;;;22.70;62.70;;;;;;5050069;28;20459;-70
2022/07/31 03:09:37;;;;;;;2.97;2.77;;;22.70;62.70;;;;;;5042058;28;20245;-69
2022/07/31 03:12:24;;;;;;;3.03;2.83;;;22.70;62.70;;;;;;5037946;28;20207;-69
2022/07/31 03:14:52;;;;;;;6.77;2.90;;;22.70;63.10;;;;;;5036276;28;20452;-70
2022/07/31 03:17:18;;;;;;;2.67;2.47;;;22.60;62.90;;;;;;5037904;28;20436;-69
2022/07/31 03:19:46;;;;;;;9.00;2.97;;;22.60;62.90;;;;;;5054499;28;20441;-70
2022/07/31 03:22:12;;;;;;;3.00;2.80;;;22.60;63.10;;;;;;5045974;28;20956;-70
2022/07/31 03:24:38;;;;;;;3.10;2.90;;;22.60;63.30;;;;;;5037562;28;20970;-69
2022/07/31 03:27:04;;;;;;;3.10;2.90;;;22.60;63.40;;;;;;5074947;28;20524;-70
2022/07/31 03:29:39;;;;;;;4.50;3.50;;;22.60;63.30;;;;;;5058511;28;20306;-71
2022/07/31 03:32:05;;;;;;;3.37;2.90;;;22.60;63.70;;;;;;5049655;28;20297;-69
2022/07/31 03:34:32;;;;;;;3.73;2.90;;;22.50;63.50;;;;;;5039634;28;20439;-70
2022/07/31 03:36:58;;;;;;;3.07;2.80;;;22.50;63.60;;;;;;5042963;28;20781;-69
2022/07/31 03:39:24;;;;;;;3.17;2.97;;;22.50;64.00;;;;;;5036515;28;20706;-69
2022/07/31 03:41:53;;;;;;;2.47;2.37;;;22.50;63.80;;;;;;5036853;28;20690;-67
2022/07/31 03:44:20;;;;;;;3.47;3.17;;;22.40;63.90;;;;;;5052332;28;20548;-68
2022/07/31 03:46:46;;;;;;;3.90;2.60;;;22.40;64.40;;;;;;5062230;28;20582;-70
2022/07/31 03:49:13;;;;;;;4.60;3.70;;;22.30;64.20;;;;;;5035545;28;20459;-68
2022/07/31 03:51:39;;;;;;;3.07;2.80;;;22.30;64.40;;;;;;5040816;28;20449;-68
2022/07/31 03:54:05;;;;;;;3.17;2.90;;;22.30;64.50;;;;;;5045558;28;20448;-68
2022/07/31 03:56:46;;;;;;;2.97;2.77;;;22.20;64.60;;;;;;5064405;28;20202;-69
2022/07/31 03:59:14;;;;;;;3.60;3.30;;;22.20;64.20;;;;;;5042698;28;20527;-69
2022/07/31 04:01:40;;;;;;;3.47;3.17;;;22.20;64.30;;;;;;5053827;28;20449;-69
2022/07/31 04:04:15;;;;;;;3.97;2.80;;;22.20;64.40;;;;;;5054534;28;20467;-69
2022/07/31 04:06:55;;;;;;;3.53;3.27;;;22.20;64.20;;;;;;5053519;28;20453;-70
2022/07/31 04:09:20;;;;;;;3.33;3.10;;;22.20;64.10;;;;;;5061569;28;20998;-70
2022/07/31 04:11:47;;;;;;;3.63;2.90;;;22.20;64.10;;;;;;5059083;28;20218;-70
2022/07/31 04:14:13;;;;;;;3.07;2.87;;;22.20;63.90;;;;;;5049767;28;20445;-69
2022/07/31 04:16:39;;;;;;;2.93;2.33;;;22.20;64.10;;;;;;5053920;28;20223;-70
2022/07/31 04:19:04;;;;;;;3.10;2.90;;;22.20;64.10;;;;;;5033208;28;20227;-69
2022/07/31 04:21:30;;;;;;;2.90;2.70;;;22.20;64.00;;;;;;5049771;28;20883;-69
2022/07/31 04:23:56;;;;;;;3.10;2.90;;;22.20;63.80;;;;;;5033150;28;20239;-69
2022/07/31 04:26:42;;;;;;;3.33;3.03;;;22.20;63.90;;;;;;5040711;28;20728;-69
2022/07/31 04:29:08;;;;;;;3.63;2.77;;;22.20;64.20;;;;;;5037233;28;20856;-69
2022/07/31 04:31:35;;;;;;;2.80;2.60;;;22.20;64.30;;;;;;5039984;28;20461;-69
2022/07/31 04:34:02;;;;;;;3.20;3.00;;;22.20;63.80;;;;;;5043068;28;20449;-69
2022/07/31 04:36:28;;;;;;;3.27;2.97;;;22.20;65.10;;;;;;5058353;28;20456;-70
2022/07/31 04:38:53;;;;;;;3.00;2.80;;;22.20;64.40;;;;;;5048426;28;20635;-70
2022/07/31 04:41:20;;;;;;;3.07;2.87;;;22.20;64.80;;;;;;5033350;28;20215;-69
2022/07/31 04:43:46;;;;;;;3.30;3.03;;;22.10;65.20;;;;;;5035577;28;20449;-69
2022/07/31 04:46:11;;;;;;;4.10;3.20;;;22.10;65.00;;;;;;5052535;28;20596;-70
2022/07/31 04:48:37;;;;;;;3.30;3.00;;;22.10;65.50;;;;;;5048849;28;20215;-71
2022/07/31 04:51:06;;;;;;;3.90;3.50;;;22.10;64.90;;;;;;5030728;28;20227;-70
2022/07/31 04:53:32;;;;;;;2.93;2.73;;;22.10;65.60;;;;;;5035296;28;20455;-70
2022/07/31 04:58:41;;;;;;;3.40;3.10;;;22.10;65.30;;;;;;5052696;28;20321;-70
2022/07/31 05:01:07;;;;;;;3.43;3.13;;;22.10;65.70;;;;;;5034031;28;21016;-70
2022/07/31 05:03:33;;;;;;;3.10;2.90;;;22.10;66.50;;;;;;5068399;28;20222;-70
2022/07/31 05:06:10;;;;;;;3.73;3.13;;;22.10;66.50;;;;;;5032864;28;20215;-70
2022/07/31 05:08:36;;;;;;;3.47;3.00;;;22.10;66.90;;;;;;5042636;28;21181;-69
2022/07/31 05:13:46;;;;;;;3.93;3.37;;;22.10;66.60;;;;;;5044652;28;20215;-69
2022/07/31 05:16:11;;;;;;;4.50;3.80;;;22.10;67.00;;;;;;5033341;28;20516;-69
2022/07/31 05:18:37;;;;;;;3.50;3.20;;;22.10;66.90;;;;;;5043813;28;20276;-70
2022/07/31 05:21:35;;;;;;;3.40;3.07;;;22.10;66.90;;;;;;5069954;28;20309;-70
2022/07/31 05:24:21;;;;;;;3.87;3.43;;;22.10;67.20;;;;;;5065858;28;20453;-68
2022/07/31 05:26:54;;;;;;;4.93;3.77;;;22.10;67.20;;;;;;5037753;28;20953;-69
2022/07/31 05:29:20;;;;;;;4.03;3.30;;;22.10;67.20;;;;;;5040231;28;20472;-69
2022/07/31 05:31:45;;;;;;;9.60;3.30;;;22.10;67.80;;;;;;5052151;28;20218;-70
2022/07/31 05:34:11;;;;;;;3.13;2.93;;;22.10;67.60;;;;;;5052218;28;20223;-70
2022/07/31 05:36:38;;;;;;;2.87;2.67;;;22.10;67.10;;;;;;5032338;28;20302;-70
2022/07/31 05:39:04;;;;;;;4.40;3.07;;;22.10;66.70;;;;;;5031546;28;20462;-70
2022/07/31 05:41:32;;;;;;;3.03;2.83;;;22.10;66.80;;;;;;5051594;28;20454;-69
2022/07/31 05:44:13;;;;;;;2.83;2.63;;;22.10;66.30;;;;;;5069127;28;20219;-69
2022/07/31 05:46:44;;;;;;;3.37;3.17;;;22.10;66.60;;;;;;5034927;28;20472;-69
2022/07/31 05:49:10;;;;;;;3.47;3.17;;;22.10;66.30;;;;;;5035198;28;20465;-68
2022/07/31 05:51:36;;;;;;;4.00;3.53;;;22.10;66.10;;;;;;5046379;28;20510;-70
2022/07/31 05:54:02;;;;;;;3.47;3.23;;;22.10;66.10;;;;;;5034526;28;20250;-70
2022/07/31 05:56:46;;;;;;;5.00;3.43;;;22.10;66.30;;;;;;5069868;28;20268;-70
2022/07/31 05:59:14;;;;;;;3.60;3.30;;;22.10;66.50;;;;;;5049321;28;20547;-71
2022/07/31 06:01:40;;;;;;;2.70;2.50;;;22.10;66.00;;;;;;5034659;28;20449;-69
2022/07/31 06:04:06;;;;;;;3.63;2.83;;;22.10;66.30;;;;;;5035327;28;20223;-70
2022/07/31 06:06:38;;;;;;;3.17;2.97;;;22.10;67.00;;;;;;5035203;28;20207;-69
2022/07/31 06:09:04;;;;;;;3.87;3.40;;;22.10;67.10;;;;;;5035632;28;20449;-70
2022/07/31 06:11:33;;;;;;;3.70;3.40;;;22.10;67.70;;;;;;5050578;28;20575;-70
2022/07/31 06:13:59;;;;;;;2.93;2.73;;;22.10;67.10;;;;;;5030557;28;20962;-69
2022/07/31 06:16:31;;;;;;;4.57;3.17;;;22.20;67.30;;;;;;5061559;28;20222;-69
2022/07/31 06:18:57;;;;;;;4.53;2.80;;;22.20;67.40;;;;;;5051615;28;20464;-69
2022/07/31 06:21:22;;;;;;;3.87;3.57;;;22.20;68.10;;;;;;5045997;28;20285;-69
2022/07/31 06:23:48;;;;;;;3.07;2.87;;;22.20;68.30;;;;;;5054790;28;20222;-69
2022/07/31 06:26:35;;;;;;;3.27;3.07;;;22.20;69.10;;;;;;5048199;28;20211;-70
2022/07/31 06:29:00;;;;;;;3.10;2.90;;;22.20;69.30;;;;;;5038146;28;20458;-70
2022/07/31 06:31:26;;;;;;;3.23;2.93;;;22.20;68.80;;;;;;5050727;28;20261;-69
2022/07/31 06:33:55;;;;;;;3.53;3.33;;;22.20;69.30;;;;;;5050497;28;20680;-70
2022/07/31 06:36:25;;;;;;;4.20;3.67;;;22.30;69.30;;;;;;5046561;28;20532;-69
2022/07/31 06:38:57;;;;;;;3.70;3.40;;;22.30;69.20;;;;;;5047075;28;20465;-70
2022/07/31 06:41:45;;;;;;;3.60;3.37;;;22.30;68.70;;;;;;5067731;28;20514;-70
2022/07/31 06:44:26;;;;;;;3.40;3.20;;;22.30;69.20;;;;;;5066878;28;20465;-70
2022/07/31 06:47:11;;;;;;;4.53;4.10;;;22.30;69.40;;;;;;5058499;28;20467;-70
2022/07/31 06:49:52;;;;;;;3.63;3.20;;;22.30;69.70;;;;;;5051733;28;20991;-68
2022/07/31 06:52:18;;;;;;;3.10;2.90;;;22.30;70.60;;;;;;5037020;28;20449;-70
2022/07/31 06:54:44;;;;;;;3.70;3.40;;;22.30;70.50;;;;;;5036378;28;20526;-71
2022/07/31 06:57:11;;;;;;;4.10;3.50;;;22.40;70.80;;;;;;5054724;28;20457;-70
2022/07/31 06:59:37;;;;;;;5.23;3.10;;;22.40;71.60;;;;;;5045078;28;20226;-69
2022/07/31 07:02:02;;;;;;;3.90;3.60;;;22.40;72.10;;;;;;5054266;28;20925;-70
2022/07/31 07:04:28;;;;;;;3.93;3.53;;;22.40;71.80;;;;;;5036024;28;20382;-69
2022/07/31 07:06:54;;;;;;;3.70;3.40;;;22.40;71.80;;;;;;5051233;28;20234;-70
2022/07/31 07:09:20;;;;;;;5.70;3.30;;;22.40;71.60;;;;;;5037989;28;20215;-70
2022/07/31 07:11:46;;;;;;;3.87;3.57;;;22.40;70.60;;;;;;5028548;28;20211;-69
2022/07/31 07:14:12;;;;;;;3.50;3.20;;;22.40;71.10;;;;;;5032528;28;20223;-69
2022/07/31 07:16:38;;;;;;;3.43;3.13;;;22.50;70.60;;;;;;5053984;28;20702;-70
2022/07/31 07:19:04;;;;;;;2.90;2.70;;;22.50;70.50;;;;;;5037584;28;20473;-70
2022/07/31 07:21:30;;;;;;;3.33;3.13;;;22.50;70.60;;;;;;5037142;28;20226;-70
2022/07/31 07:23:56;;;;;;;3.63;3.33;;;22.50;70.40;;;;;;5053817;28;20460;-68
2022/07/31 07:26:40;;;;;;;3.87;2.90;;;22.50;70.30;;;;;;5055936;28;20551;-70
2022/07/31 07:29:06;;;;;;;3.70;3.40;;;22.50;70.60;;;;;;5047929;28;20461;-70
2022/07/31 07:31:32;;;;;;;3.43;3.20;;;22.50;71.00;;;;;;5036788;28;20222;-70
2022/07/31 07:33:59;;;;;;;3.60;3.30;;;22.50;70.60;;;;;;5053098;28;20324;-70
2022/07/31 07:36:25;;;;;;;3.50;3.20;;;22.60;71.10;;;;;;5037555;28;20215;-70
2022/07/31 07:39:02;;;;;;;5.30;3.10;;;22.60;70.80;;;;;;5033457;28;20540;-70
2022/07/31 07:41:29;;;;;;;3.80;3.17;;;22.60;70.60;;;;;;5052417;28;20461;-70
2022/07/31 07:43:54;;;;;;;3.77;3.47;;;22.60;70.80;;;;;;5052737;28;20461;-69
2022/07/31 07:46:24;;;;;;;3.53;3.23;;;22.70;71.00;;;;;;5037665;28;20219;-69
2022/07/31 07:48:54;;;;;;;3.30;3.00;;;22.70;71.10;;;;;;5033205;28;20460;-70
2022/07/31 07:51:38;;;;;;;4.33;3.90;;;22.80;71.50;;;;;;5038915;28;20461;-70
2022/07/31 07:54:28;;;;;;;2.80;2.60;;;22.80;71.90;;;;;;5038670;28;20467;-69
2022/07/31 07:57:18;;;;;;;5.30;3.77;;;22.90;71.60;;;;;;5053472;28;20483;-68
2022/07/31 08:00:06;;;;;;;3.10;2.90;;;22.90;71.80;;;;;;5058946;28;20532;-70
2022/07/31 08:02:49;;;;;;;3.03;2.83;;;23.00;71.30;;;;;;5045528;28;20520;-70
2022/07/31 08:05:15;;;;;;;4.00;2.87;;;23.00;71.70;;;;;;5036804;28;20873;-70
2022/07/31 08:07:42;;;;;;;3.27;2.97;;;23.10;71.60;;;;;;5053483;28;20225;-70
2022/07/31 08:10:22;;;;;;;3.57;2.83;;;23.20;71.80;;;;;;5031705;28;20461;-70
2022/07/31 08:13:06;;;;;;;3.83;2.90;;;23.30;72.70;;;;;;5051939;28;20548;-70
2022/07/31 08:16:10;;;;;;;3.80;3.50;;;23.30;71.60;;;;;;5067279;28;20478;-70
2022/07/31 08:18:44;;;;;;;3.73;3.40;;;23.40;71.30;;;;;;5045890;28;20476;-70
2022/07/31 08:21:10;;;;;;;3.33;3.13;;;23.50;71.20;;;;;;5037732;28;20465;-70
2022/07/31 08:23:36;;;;;;;4.40;3.20;;;23.50;70.90;;;;;;5033520;28;20822;-71
2022/07/31 08:26:03;;;;;;;3.80;3.50;;;23.60;70.90;;;;;;5051633;28;20698;-70
2022/07/31 08:28:29;;;;;;;3.57;3.30;;;23.70;71.10;;;;;;5066705;28;20996;-70
2022/07/31 08:30:55;;;;;;;3.33;3.10;;;23.70;70.90;;;;;;5036180;28;20453;-70
2022/07/31 08:33:22;;;;;;;3.70;3.23;;;23.80;70.90;;;;;;5045316;28;20466;-70
2022/07/31 08:35:54;;;;;;;4.20;3.30;;;23.90;71.50;;;;;;5032856;28;20461;-70
2022/07/31 08:38:20;;;;;;;3.47;3.00;;;24.00;70.50;;;;;;5047184;28;20518;-69
2022/07/31 08:41:17;;;;;;;3.30;3.10;;;24.10;70.90;;;;;;5054777;28;20457;-70
2022/07/31 08:43:43;;;;;;;3.50;3.20;;;24.20;70.70;;;;;;5051561;28;20481;-69
2022/07/31 08:46:10;;;;;;;3.40;3.20;;;24.30;70.60;;;;;;5032367;28;20729;-69
2022/07/31 08:48:40;;;;;;;3.30;3.10;;;24.40;70.30;;;;;;5031364;28;20237;-70
2022/07/31 08:51:09;;;;;;;3.23;3.03;;;24.40;69.90;;;;;;5046169;28;20461;-69
2022/07/31 08:53:54;;;;;;;3.33;3.13;;;24.50;70.00;;;;;;5048807;28;20987;-69
2022/07/31 08:56:21;;;;;;;5.27;3.00;;;24.50;69.70;;;;;;5028169;28;20560;-70
2022/07/31 08:58:47;;;;;;;3.20;3.00;;;24.60;69.60;;;;;;5046150;28;20456;-69
2022/07/31 09:01:13;;;;;;;3.80;3.50;;;24.70;69.40;;;;;;5047935;28;20842;-70
2022/07/31 09:03:40;;;;;;;3.70;3.50;;;24.70;69.70;;;;;;5050384;28;20230;-70
2022/07/31 09:06:09;;;;;;;3.47;3.17;;;24.80;68.80;;;;;;5017624;28;20465;-69
2022/07/31 09:08:36;;;;;;;3.40;3.10;;;24.80;69.00;;;;;;5033801;28;20449;-70
2022/07/31 09:11:06;;;;;;;3.37;3.17;;;24.90;68.70;;;;;;5020479;28;20226;-70
2022/07/31 09:13:36;;;;;;;3.90;3.60;;;25.00;68.40;;;;;;5042962;28;20453;-70
2022/07/31 09:16:06;;;;;;;4.63;4.33;;;25.10;67.20;;;;;;5052952;28;21015;-69
2022/07/31 09:18:33;;;;;;;10.70;9.70;;;25.20;66.20;;;;;;5035249;28;20537;-68
2022/07/31 09:21:06;;;;;;;9.97;8.97;;;25.30;66.00;;;;;;5042392;28;20464;-70
2022/07/31 09:23:32;;;;;;;7.00;6.50;;;25.40;66.40;;;;;;5028610;28;20451;-69
2022/07/31 09:26:00;;;;;;;7.47;6.63;;;25.40;66.20;;;;;;5032492;28;20461;-69
2022/07/31 09:28:39;;;;;;;6.00;5.50;;;25.40;66.10;;;;;;5043804;28;20244;-70
2022/07/31 09:31:08;;;;;;;6.20;4.90;;;25.50;66.10;;;;;;5052949;28;20472;-69
2022/07/31 09:34:06;;;;;;;4.50;4.10;;;25.50;66.30;;;;;;5049809;28;21003;-69
2022/07/31 09:36:34;;;;;;;4.27;3.97;;;25.60;66.10;;;;;;5051972;28;20984;-69
2022/07/31 09:39:18;;;;;;;3.10;2.90;;;25.60;66.30;;;;;;5050959;28;20518;-68
2022/07/31 09:42:03;;;;;;;4.27;3.47;;;25.70;66.00;;;;;;5053698;28;20538;-69
2022/07/31 09:44:57;;;;;;;5.63;3.43;;;25.80;66.10;;;;;;5073906;28;20465;-69
2022/07/31 09:47:27;;;;;;;3.07;2.87;;;25.80;66.00;;;;;;5035007;28;20460;-69
2022/07/31 09:50:02;;;;;;;2.80;2.60;;;26.00;66.60;;;;;;5051766;28;20729;-69
2022/07/31 09:52:30;;;;;;;2.87;2.67;;;26.00;65.60;;;;;;5051622;28;20813;-68
2022/07/31 09:55:06;;;;;;;3.10;2.77;;;26.10;65.30;;;;;;5035425;28;20523;-69
2022/07/31 09:57:34;;;;;;;2.90;2.70;;;26.10;65.60;;;;;;5033812;28;20460;-68
2022/07/31 10:00:01;;;;;;;3.00;2.70;;;26.20;65.70;;;;;;5050163;28;20461;-69
2022/07/31 10:02:28;;;;;;;2.60;2.50;;;26.50;63.80;;;;;;5050741;28;21079;-68
2022/07/31 10:04:56;;;;;;;2.90;2.70;;;26.70;62.90;;;;;;5051712;28;20450;-69
2022/07/31 10:07:27;;;;;;;2.57;2.43;;;26.80;63.00;;;;;;5026715;28;20469;-69
2022/07/31 10:09:56;;;;;;;4.40;2.50;;;27.00;62.80;;;;;;5051611;28;20473;-70
2022/07/31 10:12:54;;;;;;;2.60;2.40;;;27.00;62.00;;;;;;5050396;28;20976;-69
2022/07/31 10:15:22;;;;;;;3.27;2.97;;;27.10;61.90;;;;;;5037176;28;20443;-69
2022/07/31 10:18:08;;;;;;;2.70;2.50;;;27.10;62.00;;;;;;5040196;28;20594;-68
2022/07/31 10:20:53;;;;;;;3.00;2.80;;;27.20;61.60;;;;;;5041875;28;20476;-69
2022/07/31 10:23:32;;;;;;;3.37;3.13;;;27.50;60.60;;;;;;5049978;28;20979;-70
2022/07/31 10:26:04;;;;;;;2.85;2.10;;;27.50;60.40;;;;;;5039874;28;20222;-69
2022/07/31 10:28:31;;;;;;;2.60;2.50;;;27.50;59.80;;;;;;5041878;28;20726;-69
2022/07/31 10:30:57;;;;;;;3.00;2.63;;;27.50;59.90;;;;;;5024647;28;20467;-69
2022/07/31 10:33:25;;;;;;;2.58;2.38;;;27.60;60.70;;;;;;5047536;28;20218;-69
2022/07/31 10:36:25;;;;;;;2.80;2.53;;;27.70;60.00;;;;;;5060495;28;20232;-69
2022/07/31 10:39:19;;;;;;;2.50;2.30;;;27.90;60.00;;;;;;5032960;28;20246;-70
2022/07/31 10:42:11;;;;;;;2.90;2.70;;;28.00;60.60;;;;;;5045700;28;20236;-69
2022/07/31 10:45:05;;;;;;;2.77;2.50;;;28.10;60.40;;;;;;5047944;28;20254;-69
2022/07/31 10:47:59;;;;;;;2.78;2.60;;;28.40;59.60;;;;;;5051064;28;20265;-70
2022/07/31 10:50:44;;;;;;;2.35;2.25;;;28.50;59.60;;;;;;5054097;28;20273;-69
2022/07/31 10:53:20;;;;;;;2.95;2.78;;;28.60;59.70;;;;;;5050354;28;20253;-69
2022/07/31 10:56:09;;;;;;;2.95;2.35;;;28.90;59.10;;;;;;5033632;28;20228;-69
2022/07/31 10:58:56;;;;;;;2.70;2.50;;;29.10;59.00;;;;;;5053933;28;20227;-69
2022/07/31 11:01:45;;;;;;;2.70;2.50;;;29.20;59.20;;;;;;5059708;28;20796;-70
2022/07/31 11:04:34;;;;;;;2.17;2.08;;;29.40;58.90;;;;;;5044834;28;20451;-70
2022/07/31 11:07:18;;;;;;;2.97;2.78;;;29.60;58.70;;;;;;5050451;28;20253;-70
2022/07/31 11:10:16;;;;;;;2.55;2.40;;;29.80;58.30;;;;;;5061605;28;20251;-71
2022/07/31 11:13:09;;;;;;;2.97;2.60;;;29.90;58.80;;;;;;5047795;28;20234;-68
2022/07/31 11:16:05;;;;;;;2.85;2.65;;;30.20;57.80;;;;;;5040997;28;20226;-70
2022/07/31 11:18:44;;;;;;;2.50;2.40;;;30.50;57.70;;;;;;5056974;28;20224;-70
2022/07/31 11:21:10;;;;;;;2.80;2.60;;;30.60;57.90;;;;;;5068964;28;20590;-70
2022/07/31 11:23:36;;;;;;;3.40;3.10;;;30.60;57.70;;;;;;5046447;28;20216;-70
2022/07/31 11:26:07;;;;;;;3.00;2.80;;;30.70;57.30;;;;;;5038813;28;20635;-70
2022/07/31 11:28:34;;;;;;;3.88;3.03;;;30.80;57.50;;;;;;5049026;28;20275;-70
2022/07/31 11:31:04;;;;;;;3.50;3.30;;;30.90;56.50;;;;;;5064022;28;20291;-70
2022/07/31 11:33:32;;;;;;;6.00;3.00;;;30.90;56.90;;;;;;5061864;28;20229;-70
2022/07/31 11:36:08;;;;;;;3.63;2.85;;;31.10;56.80;;;;;;5052083;28;20232;-70
2022/07/31 11:38:35;;;;;;;3.90;3.60;;;31.20;55.90;;;;;;5037576;28;20232;-70
2022/07/31 11:41:01;;;;;;;2.40;2.30;;;31.20;55.90;;;;;;5051494;28;20248;-70
2022/07/31 11:43:27;;;;;;;2.90;2.70;;;31.30;55.70;;;;;;5031506;28;20208;-70
2022/07/31 11:45:54;;;;;;;3.10;2.90;;;31.30;56.00;;;;;;5031213;28;20628;-69
2022/07/31 11:48:21;;;;;;;3.33;3.13;;;31.30;55.80;;;;;;5035640;28;20621;-69
2022/07/31 11:50:56;;;;;;;3.10;2.90;;;31.30;56.10;;;;;;5054304;28;20314;-70
2022/07/31 11:53:21;;;;;;;3.10;2.90;;;31.30;55.40;;;;;;5049913;28;20234;-70
2022/07/31 11:55:57;;;;;;;2.72;2.53;;;31.20;55.70;;;;;;5071084;28;20218;-67
2022/07/31 11:58:26;;;;;;;2.75;2.55;;;31.30;55.70;;;;;;5071959;28;20233;-69
2022/07/31 12:01:11;;;;;;;3.38;2.67;;;31.50;55.40;;;;;;5051818;28;20284;-69
2022/07/31 12:03:37;;;;;;;2.88;2.67;;;31.60;54.40;;;;;;5050130;28;20304;-70
2022/07/31 12:06:05;;;;;;;3.13;2.92;;;31.70;55.00;;;;;;5028944;28;20215;-67
2022/07/31 12:08:31;;;;;;;2.72;2.63;;;31.80;55.20;;;;;;5048784;28;20226;-70
2022/07/31 12:10:58;;;;;;;3.13;2.92;;;31.60;54.10;;;;;;5053166;28;20253;-70
2022/07/31 12:13:25;;;;;;;2.40;2.30;;;31.60;54.40;;;;;;5050023;28;20265;-70
2022/07/31 12:16:04;;;;;;;3.80;3.03;;;31.60;54.60;;;;;;5050838;28;20233;-71
2022/07/31 12:18:47;;;;;;;3.28;2.97;;;31.90;54.20;;;;;;5041756;28;20600;-70
2022/07/31 12:21:13;;;;;;;3.00;2.70;;;32.00;53.80;;;;;;5050003;28;20731;-71
2022/07/31 12:23:43;;;;;;;2.83;2.63;;;32.20;54.50;;;;;;5035976;28;20210;-70
2022/07/31 12:26:30;;;;;;;3.53;3.00;;;32.50;54.10;;;;;;5059624;28;20228;-71
2022/07/31 12:28:58;;;;;;;3.17;2.97;;;32.60;54.20;;;;;;5068437;28;20222;-70
2022/07/31 12:31:24;;;;;;;3.28;2.90;;;32.60;54.40;;;;;;5066104;28;20230;-70
2022/07/31 12:33:50;;;;;;;3.15;2.95;;;32.70;54.10;;;;;;5046649;28;20211;-71
2022/07/31 12:36:16;;;;;;;3.20;3.00;;;32.70;54.00;;;;;;5067058;28;20745;-70
2022/07/31 12:38:44;;;;;;;2.40;2.30;;;32.90;53.30;;;;;;5048143;28;20223;-70
2022/07/31 12:41:09;;;;;;;2.67;2.47;;;33.00;53.60;;;;;;5035729;28;20218;-70
2022/07/31 12:43:35;;;;;;;2.85;2.63;;;33.00;52.90;;;;;;5052340;28;20264;-70
2022/07/31 12:46:04;;;;;;;2.63;2.40;;;32.70;53.00;;;;;;5061117;28;20237;-70
2022/07/31 12:48:33;;;;;;;2.58;2.47;;;32.60;52.70;;;;;;5052133;28;20219;-70
2022/07/31 12:51:01;;;;;;;4.00;2.88;;;32.50;52.70;;;;;;5035916;28;20238;-70
2022/07/31 12:53:29;;;;;;;2.88;2.65;;;32.30;52.60;;;;;;5066622;28;20271;-70
2022/07/31 12:55:55;;;;;;;2.53;2.42;;;32.30;53.20;;;;;;5046099;28;20219;-70
2022/07/31 12:58:21;;;;;;;4.50;3.25;;;32.60;52.70;;;;;;5068007;28;20285;-70
2022/07/31 13:00:47;;;;;;;3.38;3.17;;;32.70;53.00;;;;;;5048491;28;20223;-70
2022/07/31 13:03:13;;;;;;;3.17;2.88;;;32.90;53.00;;;;;;5033155;28;20246;-71
2022/07/31 13:05:38;;;;;;;2.92;2.72;;;33.00;52.70;;;;;;5030956;28;20237;-71
2022/07/31 13:08:05;;;;;;;3.15;2.65;;;32.80;52.10;;;;;;5083064;28;20264;-70
2022/07/31 13:10:31;;;;;;;2.72;2.53;;;33.00;52.20;;;;;;5032534;28;20325;-70
2022/07/31 13:12:57;;;;;;;8.25;4.13;;;33.00;51.40;;;;;;5068297;28;20243;-70
2022/07/31 13:15:28;;;;;;;2.90;2.70;;;33.00;51.40;;;;;;5050150;28;20678;-71